Accueil
METAR-TAF:

METAR-TAF

Aéroports :

Base aérienne 133 Nancy-Ochey

Nancy, France

latitude: 48-35N, longitude: 005-58E, altitude: 336 m

Observation

Le bulletin a été fait il y a 28 minutes, à 21:30 UTC
Vent 4 kt de est/nord-est
Température 17°C
Humidité 59%
Pression 1025 hPa
Visibilité 10 km ou plus
pas de nuages en-dessous de 1500 mètres et pas de cumulonimbus.

METAR: LFSO 222130Z AUTO 06004KT CAVOK 17/09 Q1025 NOSIG

Heure: 23:58 (21:58 UTC)

Prévision

Le bulletin a été fait il y a 1 heure et 58 minutes, à 20:00 UTC
Prévision valable du 22 à 21 UTC au 23 à 21 UTC
Vent 5 kt de nord-est
Visibilité 10 km ou plus
pas de nuages en-dessous de 1500 mètres et pas de cumulonimbus.

TAF: LFSO 222000Z 2221/2321 04005KT CAVOK

Observations et prévisions météorologiques de plus de 4000 aéroports (messages METAR et TAF).

Les stations disponibles sont représentées par des disques jaunes et rouges sur la carte.

Passer la souris dessus pour voir le nom de la station.

Cliquer dessus pour voir les observations et prévisions météorologiques.

Pour changer de carte: cliquez sur les boutons verts avec une croix noire pour zoomer, sur le bouton vert avec un tiret pour effectuer un zoom arrière, ou sur les flèches vertes pour les cartes adjacentes.


METAR-TAF: